Latest Coastal Weather Observations for Marion Reef

IDQ60701

Issued at 2:42 am EST Friday 5 March 2021 (issued every 10 minutes, with the page automatically refreshed every 10 minutes)

About coastal observations | Map of coastal stations | Coastal observations for QLD | Marine services | Other Formats
Station Details ID: 200704 Name: MARION REEF Lat: -19.10 Lon: 152.39 Height: 2.0 m
Data from the previous 72 hours. | See also: Recent months for locations in Queensland
Date/Time
EST
Wind Sea
Height
m
Swell Vis
km
Cloud Weather Temp
°C
Press
MSL
hPa
Rain since
9am
mm
Dir  Spd
kts
Gust
kts
Height
m
Period
s
Dir
05/02:30am SE 25 31 - - - - - - - 25.1 999.5 -
05/02:00am ESE 25 30 - - - - - - - 25.5 1000.1 -
05/01:30am ESE 26 31 - - - - - - - 25.5 1000.5 -
05/01:00am ESE 25 30 - - - - - - - 26.1 1000.8 -
05/12:30am ESE 26 31 - - - - - - - 26.5 1001.2 -
05/12:00am ESE 29 34 - - - - - - - 26.6 1001.2 -
 
Date/Time
EST
Wind Sea
Height
m
Swell Vis
km
Cloud Weather Temp
°C
Press
MSL
hPa
Rain since
9am
mm
Dir  Spd
kts
Gust
kts
Height
m
Period
s
Dir
04/11:30pm ESE 28 33 - - - - - - - 26.5 1001.4 -
04/11:00pm SE 32 38 - - - - - - - 25.8 1001.3 -
04/10:30pm ESE 32 40 - - - - - - - 25.9 1001.3 -
04/10:00pm ESE 33 42 - - - - - - - 25.7 1001.7 -
04/09:30pm SE 34 40 - - - - - - - 25.9 1001.8 -
04/09:02pm SE 35 45 - - - - - - - 25.9 1001.5 -
04/09:00pm SE 34 43 - - - - - - - 25.8 1001.5 -
04/08:30pm SE 34 43 - - - - - - - 24.3 1001.6 -
04/08:11pm SE 31 41 - - - - - - - 25.1 1001.8 -
04/08:00pm SE 34 42 - - - - - - - 24.3 1001.7 -
04/07:30pm SE 34 40 - - - - - - - 24.6 1001.5 -
04/07:00pm SE 32 39 - - - - - - - 25.5 1001.4 -
04/06:30pm SE 33 41 - - - - - - - 25.4 1001.3 -
04/06:10pm SE 33 43 - - - - - - - 25.8 1000.9 -
04/06:00pm SSE 34 40 - - - - - - - 25.9 1000.9 -
04/05:30pm SE 31 38 - - - - - - - 25.7 1000.5 -
04/05:00pm SE 30 36 - - - - - - - 25.6 1000.3 -
04/04:30pm SSE 35 40 - - - - - - - 24.7 999.6 -
04/04:00pm SE 34 41 - - - - - - - 24.4 999.8 -
04/03:30pm SSE 31 37 - - - - - - - 25.4 999.4 -
04/03:09pm SSE 25 35 - - - - - - - 25.7 999.3 -
04/03:00pm SSE 22 28 - - - - - - - 26.5 999.4 -
04/02:30pm SSE 17 19 - - - - - - - 26.6 999.1 -
04/02:00pm S 16 19 - - - - - - - 26.3 999.3 -
04/01:30pm E 10 13 - - - - - - - 26.3 999.6 -
04/01:13pm SE 12 21 - - - - - - - 26.3 - -
04/01:11pm SSE 17 21 - - - - - - - 26.3 999.8 -
04/01:00pm S 21 27 - - - - - - - 26.5 1000.1 -
04/12:30pm S 25 29 - - - - - - - 26.1 1000.3 -
04/12:00pm SSE 24 28 - - - - - - - 25.9 1000.9 -
04/11:30am SSE 23 27 - - - - - - - 25.8 1001.6 -
04/11:00am SSE 24 28 - - - - - - - 25.7 1002.1 -
04/10:30am SE 28 31 - - - - - - - 25.2 1002.4 -
04/10:00am SE 28 32 - - - - - - - 24.8 1002.7 -
04/09:30am SE 30 37 - - - - - - - 24.5 1002.7 -
04/09:00am SE 28 35 - - - - - - - 25.1 1002.4 -
04/08:58am ESE 26 34 - - - - - - - 25.1 1002.4 -
04/08:53am ESE 20 30 - - - - - - - 25.5 1002.6 -
04/08:30am ESE 23 29 - - - - - - - 23.9 1002.7 -
04/08:29am ESE 23 29 - - - - - - - 24.7 1002.7 -
04/08:00am SE 27 31 - - - - - - - 24.8 1002.3 -
04/07:30am SE 27 33 - - - - - - - 25.5 1002.0 -
04/07:00am SE 27 33 - - - - - - - 25.3 1002.0 -
04/06:54am SE 26 33 - - - - - - - 25.1 1001.6 -
04/06:44am SE 19 30 - - - - - - - 25.4 1001.7 -
04/06:43am SE 17 26 - - - - - - - 25.5 1001.7 -
04/06:30am SE 12 16 - - - - - - - 25.0 1001.9 -
04/06:12am SE 20 24 - - - - - - - 25.2 1001.7 -
04/06:00am SSE 20 24 - - - - - - - 26.1 1001.7 -
04/05:30am SSE 21 28 - - - - - - - 25.7 1001.5 -
04/05:00am SSE 23 27 - - - - - - - 26.0 1001.4 -
04/04:30am SSE 20 25 - - - - - - - 25.9 1001.2 -
04/04:00am SSE 17 20 - - - - - - - 26.2 1001.0 -
04/03:30am ESE 15 17 - - - - - - - 26.8 1001.2 -
04/03:00am ESE 17 19 - - - - - - - 26.7 1001.3 -
04/02:30am SE 15 18 - - - - - - - 26.6 1001.4 -
04/02:00am ESE 16 17 - - - - - - - 26.4 1001.9 -
04/01:30am SE 17 20 - - - - - - - 27.0 1002.1 -
04/01:00am SE 16 19 - - - - - - - 27.1 1002.3 -
04/12:30am SE 17 19 - - - - - - - 27.1 1002.6 -
04/12:00am SE 18 21 - - - - - - - 26.9 1002.5 -
 
Date/Time
EST
Wind Sea
Height
m
Swell Vis
km
Cloud Weather Temp
°C
Press
MSL
hPa
Rain since
9am
mm
Dir  Spd
kts
Gust
kts
Height
m
Period
s
Dir
03/11:30pm SE 18 21 - - - - - - - 26.8 1002.9 -
03/11:00pm SE 17 19 - - - - - - - 26.9 1003.4 -
03/10:30pm SE 16 18 - - - - - - - 27.2 1003.7 -
03/10:00pm SSE 18 20 - - - - - - - 26.7 1003.9 -
03/09:30pm SSE 18 22 - - - - - - - 27.0 1003.6 -
03/09:00pm SSE 17 19 - - - - - - - 26.9 1003.7 -
03/08:30pm SSE 20 23 - - - - - - - 26.2 1003.1 -
03/08:00pm SE 18 21 - - - - - - - 26.7 1002.8 -
03/07:30pm SE 14 16 - - - - - - - 27.0 1003.1 -
03/07:00pm SE 16 19 - - - - - - - 26.8 1002.9 -
03/06:30pm SE 15 17 - - - - - - - 27.1 1002.6 -
03/06:00pm SE 11 13 - - - - - - - 27.2 1002.3 -
03/05:30pm SE 10 11 - - - - - - - 27.3 1001.8 -
03/05:00pm SE 12 14 - - - - - - - 26.6 1002.2 -
03/04:30pm ESE 6 8 - - - - - - - 26.8 1001.9 -
03/04:00pm NE 5 7 - - - - - - - 25.8 1001.6 -
03/03:30pm E 15 21 - - - - - - - 26.2 1001.6 -
03/03:00pm ESE 15 17 - - - - - - - 27.1 1001.8 -
03/02:30pm E 14 16 - - - - - - - 27.2 1001.9 -
03/02:00pm E 16 18 - - - - - - - 26.6 1002.3 -
03/01:30pm ESE 16 19 - - - - - - - 27.4 1002.4 -
03/01:00pm ESE 17 20 - - - - - - - 27.5 1002.8 -
03/12:30pm E 20 22 - - - - - - - 27.9 1003.0 -
03/12:00pm E 20 22 - - - - - - - 28.1 1003.2 -
03/11:30am E 20 24 - - - - - - - 27.8 1003.5 -
03/11:00am E 23 26 - - - - - - - 27.7 1003.5 -
03/10:30am E 23 26 - - - - - - - 28.1 1003.9 -
03/10:00am E 22 26 - - - - - - - 28.0 1003.8 -
03/09:30am E 23 27 - - - - - - - 28.1 1004.1 -
03/09:00am E 22 28 - - - - - - - 27.8 1004.0 -
03/08:30am E 23 28 - - - - - - - 27.9 1003.7 -
03/08:00am E 23 27 - - - - - - - 28.1 1003.2 -
03/07:30am E 23 28 - - - - - - - 27.9 1002.6 -
03/07:00am E 25 29 - - - - - - - 28.1 1002.5 -
03/06:30am ESE 23 28 - - - - - - - 27.9 1002.1 -
03/06:00am ESE 27 30 - - - - - - - 28.0 1001.7 -
03/05:30am ESE 26 32 - - - - - - - 27.4 1001.4 -
03/05:00am ESE 27 32 - - - - - - - 27.2 1001.5 -
03/04:30am ESE 24 30 - - - - - - - 27.5 1001.7 -
03/04:00am ESE 27 32 - - - - - - - 27.2 1001.6 -
03/03:30am SE 22 25 - - - - - - - 26.5 1002.0 -
03/03:00am ESE 23 27 - - - - - - - 26.4 1002.0 -
03/02:30am ESE 23 28 - - - - - - - 26.4 1002.2 -
03/02:00am ESE 25 29 - - - - - - - 26.6 1002.5 -
03/01:30am ESE 24 27 - - - - - - - 26.4 1002.9 -
03/01:00am ESE 20 24 - - - - - - - 26.5 1003.0 -
03/12:30am ESE 24 28 - - - - - - - 26.6 1003.4 -
03/12:00am ESE 25 30 - - - - - - - 26.4 1003.4 -
 
Date/Time
EST
Wind Sea
Height
m
Swell Vis
km
Cloud Weather Temp
°C
Press
MSL
hPa
Rain since
9am
mm
Dir  Spd
kts
Gust
kts
Height
m
Period
s
Dir
02/11:30pm SE 25 30 - - - - - - - 26.4 1003.7 -
02/11:00pm ESE 27 33 - - - - - - - 26.2 1003.7 -
02/10:30pm ESE 26 29 - - - - - - - 26.6 1003.8 -
02/10:00pm ESE 29 35 - - - - - - - 26.7 1003.6 -
02/09:30pm SE 31 37 - - - - - - - 26.8 1003.3 -
02/09:00pm SE 30 36 - - - - - - - 26.8 1003.1 -
02/08:30pm SE 32 40 - - - - - - - 26.0 1003.0 -
02/08:00pm SE 33 42 - - - - - - - 25.7 1002.7 -
02/07:30pm SSE 33 39 - - - - - - - 26.1 1002.8 -
02/07:00pm SE 32 39 - - - - - - - 26.4 1002.1 -
02/06:42pm SE 34 38 - - - - - - - 26.5 - -
02/06:41pm SE 30 37 - - - - - - - 26.5 1001.7 -
02/06:35pm SE 24 35 - - - - - - - 26.6 1001.7 -
02/06:30pm SSE 24 28 - - - - - - - 26.9 1002.0 -
02/06:00pm SSE 26 31 - - - - - - - 26.7 1001.7 -
02/05:41pm SE 21 30 - - - - - - - 26.7 1001.6 -
02/05:30pm SE 14 19 - - - - - - - 27.9 1001.6 -
02/05:00pm ESE 11 13 - - - - - - - 27.7 1001.2 -
02/04:30pm ESE 11 13 - - - - - - - 27.6 1001.1 -
02/04:00pm ESE 10 11 - - - - - - - 27.4 1001.2 -
02/03:30pm E 10 11 - - - - - - - 27.4 1001.1 -
02/03:00pm E 12 13 - - - - - - - 27.3 1001.0 -
02/02:30pm E 14 16 - - - - - - - 27.2 1001.1 -
02/02:00pm ESE 10 11 - - - - - - - 26.7 1001.3 -
02/01:30pm ENE 15 20 - - - - - - - 25.6 1001.4 -
02/01:00pm E 9 12 - - - - - - - 25.4 1001.6 -
02/12:36pm ENE 19 24 - - - - - - - 25.4 1001.6 -
02/12:30pm E 17 23 - - - - - - - 26.8 1001.6 -
02/12:09pm E 19 26 - - - - - - - 26.4 1001.6 -
02/12:07pm E 18 23 - - - - - - - 26.6 1001.8 -
02/12:00pm E 21 24 - - - - - - - 26.8 1002.1 -
02/11:30am E 21 24 - - - - - - - 27.3 1002.3 -
02/11:29am E 21 24 - - - - - - - 27.2 - -
02/11:27am E 21 24 - - - - - - - 27.1 1002.3 -
02/11:00am ESE 19 22 - - - - - - - 27.5 1002.5 -
02/10:30am ESE 21 26 - - - - - - - 27.9 1002.8 -
02/10:00am ESE 24 28 - - - - - - - 28.1 1002.9 -
02/09:30am ESE 24 28 - - - - - - - 28.0 1002.9 -
02/09:00am ESE 23 26 - - - - - - - 28.1 1002.8 -
02/08:30am ESE 22 25 - - - - - - - 28.1 1002.7 -
02/08:00am ESE 23 27 - - - - - - - 27.9 1002.6 -
02/07:30am ESE 22 25 - - - - - - - 27.6 1002.7 -
02/07:00am ESE 25 29 - - - - - - - 27.6 1002.3 -
02/06:30am ESE 23 27 - - - - - - - 27.5 1002.2 -
02/06:00am E 21 25 - - - - - - - 27.3 1001.7 -
02/05:30am E 23 27 - - - - - - - 27.1 1001.5 -
02/05:00am E 21 24 - - - - - - - 27.7 1001.6 -
02/04:30am E 20 23 - - - - - - - 27.1 1001.3 -
02/04:00am E 19 22 - - - - - - - 26.8 1001.1 -
02/03:30am E 20 25 - - - - - - - 26.8 1001.1 -
02/03:00am E 24 29 - - - - - - - 26.7 1000.9 -

Other formats

Comma delimited format used in spreadsheet applications
http://www.bom.gov.au/fwo/IDQ60701/IDQ60701.94298.axf

JavaScript Object Notation format (JSON) in row-major order
http://www.bom.gov.au/fwo/IDQ60701/IDQ60701.94298.json

Data quality

Most of these data are generated automatically and are frequently updated. Quality checks on data are not normally performed. It is possible for incorrect values to appear. Refer to information at About Latest Weather Observations and please check the disclaimer before using these data.